createdAt,value
2022-09-17T00:00:32.220Z,984.66
2022-09-17T00:01:32.232Z,984.63
2022-09-17T00:02:32.239Z,984.62
2022-09-17T00:03:32.192Z,984.66
2022-09-17T00:04:32.179Z,984.60
2022-09-17T00:05:32.167Z,984.62
2022-09-17T00:06:32.155Z,984.68
2022-09-17T00:07:32.278Z,984.64
2022-09-17T00:08:32.136Z,984.66
2022-09-17T00:09:32.127Z,984.64
2022-09-17T00:10:32.112Z,984.68
2022-09-17T00:11:32.106Z,984.65
2022-09-17T00:12:32.111Z,984.60
2022-09-17T00:13:32.098Z,984.71
2022-09-17T00:14:32.070Z,984.61
2022-09-17T00:15:32.064Z,984.67
2022-09-17T00:16:32.144Z,984.66
2022-09-17T00:17:32.064Z,984.61
2022-09-17T00:18:32.031Z,984.61
2022-09-17T00:19:32.020Z,984.59
2022-09-17T00:20:32.008Z,984.61
2022-09-17T00:21:32.001Z,984.64
2022-09-17T00:22:32.001Z,984.65
2022-09-17T00:23:32.094Z,984.63
2022-09-17T00:24:31.969Z,984.60
2022-09-17T00:25:31.957Z,984.68
2022-09-17T00:26:31.949Z,984.64
2022-09-17T00:27:31.952Z,984.65
2022-09-17T00:28:31.926Z,984.65
2022-09-17T00:29:31.918Z,984.67
2022-09-17T00:30:31.904Z,984.68
2022-09-17T00:31:32.018Z,984.69
2022-09-17T00:32:31.897Z,984.70
2022-09-17T00:33:31.875Z,984.73
2022-09-17T00:34:31.864Z,984.71
2022-09-17T00:35:31.853Z,984.71
2022-09-17T00:36:31.869Z,984.70
2022-09-17T00:37:31.854Z,984.73
2022-09-17T00:38:31.823Z,984.72
2022-09-17T00:39:31.935Z,984.71
2022-09-17T00:40:31.861Z,984.67
2022-09-17T00:41:31.793Z,984.67
2022-09-17T00:42:31.798Z,984.70
2022-09-17T00:43:31.770Z,984.63
2022-09-17T00:44:31.756Z,984.63
2022-09-17T00:45:31.751Z,984.69
2022-09-17T00:46:31.810Z,984.67
2022-09-17T00:47:31.742Z,984.64
2022-09-17T00:48:31.720Z,984.70
2022-09-17T00:49:31.711Z,984.64
2022-09-17T00:50:31.700Z,984.61
2022-09-17T00:51:31.689Z,984.59
2022-09-17T00:52:31.691Z,984.60
2022-09-17T00:53:31.668Z,984.64
2022-09-17T00:54:31.652Z,984.65
2022-09-17T00:55:31.770Z,984.62
2022-09-17T00:56:31.643Z,984.67
2022-09-17T00:57:31.647Z,984.64
2022-09-17T00:58:31.612Z,984.65
2022-09-17T00:59:31.604Z,984.71
2022-09-17T01:00:31.632Z,984.69
2022-09-17T01:01:31.592Z,984.67
2022-09-17T01:02:31.588Z,984.65
2022-09-17T01:03:31.563Z,984.66
2022-09-17T01:04:31.551Z,984.66
2022-09-17T01:05:31.542Z,984.68
2022-09-17T01:06:31.530Z,984.74
2022-09-17T01:07:31.531Z,984.74
2022-09-17T01:08:31.511Z,984.72
2022-09-17T01:09:31.504Z,984.74
2022-09-17T01:10:31.488Z,984.71
2022-09-17T01:11:31.598Z,984.75
2022-09-17T01:12:31.509Z,984.78
2022-09-17T01:13:31.455Z,984.75
2022-09-17T01:14:31.463Z,984.77
2022-09-17T01:15:31.436Z,984.76
2022-09-17T01:16:31.475Z,984.78
2022-09-17T01:17:31.433Z,984.79
2022-09-17T01:18:31.406Z,984.84
2022-09-17T01:19:31.402Z,984.77
2022-09-17T01:20:31.381Z,984.78
2022-09-17T01:21:31.374Z,984.76
2022-09-17T01:22:31.397Z,984.77
2022-09-17T01:23:31.352Z,984.78
2022-09-17T01:24:31.343Z,984.77
2022-09-17T01:25:31.330Z,984.75
2022-09-17T01:26:31.319Z,984.75
2022-09-17T01:27:31.428Z,984.72
2022-09-17T01:28:31.316Z,984.72
2022-09-17T01:29:31.295Z,984.71
2022-09-17T01:30:31.280Z,984.73
2022-09-17T01:31:31.306Z,984.74
2022-09-17T01:32:31.259Z,984.73
2022-09-17T01:33:31.266Z,984.73
2022-09-17T01:34:31.236Z,984.74
2022-09-17T01:35:31.229Z,984.75
2022-09-17T01:36:31.218Z,984.75
2022-09-17T01:37:31.206Z,984.76
2022-09-17T01:38:31.210Z,984.78
2022-09-17T01:39:31.189Z,984.77
2022-09-17T01:40:31.242Z,984.77
2022-09-17T01:41:31.164Z,984.76
2022-09-17T01:42:31.172Z,984.82
2022-09-17T01:43:31.273Z,984.80
2022-09-17T01:44:31.132Z,984.77
2022-09-17T01:45:31.125Z,984.81
2022-09-17T01:46:31.194Z,984.84
2022-09-17T01:47:31.120Z,984.79
2022-09-17T01:48:31.095Z,984.80
2022-09-17T01:49:31.084Z,984.78
2022-09-17T01:50:31.073Z,984.81
2022-09-17T01:51:31.075Z,984.82
2022-09-17T01:52:31.070Z,984.82
2022-09-17T01:53:31.039Z,984.83
2022-09-17T01:54:31.027Z,984.78
2022-09-17T01:55:31.020Z,984.80
2022-09-17T01:56:31.007Z,984.79
2022-09-17T01:57:31.013Z,984.76
2022-09-17T01:58:30.985Z,984.77
2022-09-17T01:59:31.097Z,984.81
2022-09-17T02:00:31.019Z,984.82
2022-09-17T02:01:30.978Z,984.80
2022-09-17T02:02:31.076Z,984.78
2022-09-17T02:03:30.935Z,984.80
2022-09-17T02:04:30.923Z,984.77
2022-09-17T02:05:30.918Z,984.78
2022-09-17T02:06:30.904Z,984.79
2022-09-17T02:07:30.908Z,984.78
2022-09-17T02:08:30.883Z,984.76
2022-09-17T02:09:30.892Z,984.83
2022-09-17T02:10:30.859Z,984.77
2022-09-17T02:11:30.858Z,984.78
2022-09-17T02:12:30.859Z,984.82
2022-09-17T02:13:30.885Z,984.80
2022-09-17T02:14:30.819Z,984.82
2022-09-17T02:15:30.930Z,984.79
2022-09-17T02:16:30.847Z,984.82
2022-09-17T02:17:30.803Z,984.83
2022-09-17T02:18:30.776Z,984.80
2022-09-17T02:19:30.770Z,984.84
2022-09-17T02:20:30.762Z,984.81
2022-09-17T02:21:30.751Z,984.86
2022-09-17T02:22:30.756Z,984.84
2022-09-17T02:23:30.728Z,984.84
2022-09-17T02:24:30.717Z,984.82
2022-09-17T02:25:30.707Z,984.83
2022-09-17T02:26:30.693Z,984.81
2022-09-17T02:27:30.707Z,984.79
2022-09-17T02:28:30.677Z,984.83
2022-09-17T02:29:30.674Z,984.82
2022-09-17T02:30:30.654Z,984.82
2022-09-17T02:31:30.828Z,984.83
2022-09-17T02:32:30.639Z,984.80
2022-09-17T02:33:30.646Z,984.84
2022-09-17T02:34:30.613Z,984.84
2022-09-17T02:35:30.618Z,984.82
2022-09-17T02:36:30.590Z,984.80
2022-09-17T02:37:30.582Z,984.82
2022-09-17T02:38:30.594Z,984.79
2022-09-17T02:39:30.560Z,984.78
2022-09-17T02:40:30.607Z,984.77
2022-09-17T02:41:30.541Z,984.78
2022-09-17T02:42:30.526Z,984.74
2022-09-17T02:43:30.528Z,984.78
2022-09-17T02:44:30.509Z,984.80
2022-09-17T02:45:30.502Z,984.83
2022-09-17T02:46:30.550Z,984.82
2022-09-17T02:47:30.601Z,984.79
2022-09-17T02:48:30.489Z,984.81
2022-09-17T02:49:30.460Z,984.81
2022-09-17T02:50:30.444Z,984.80
2022-09-17T02:51:30.434Z,984.86
2022-09-17T02:52:30.427Z,984.87
2022-09-17T02:53:30.427Z,984.85
2022-09-17T02:54:30.407Z,984.81
2022-09-17T02:55:30.406Z,984.82
2022-09-17T02:56:30.381Z,984.83
2022-09-17T02:57:30.371Z,984.85
2022-09-17T02:58:30.378Z,984.82
2022-09-17T02:59:30.354Z,984.86
2022-09-17T03:00:30.379Z,984.87
2022-09-17T03:01:30.331Z,984.82
2022-09-17T03:02:30.364Z,984.84
2022-09-17T03:03:30.444Z,984.84
2022-09-17T03:04:30.300Z,984.82
2022-09-17T03:05:30.288Z,984.85
2022-09-17T03:06:30.279Z,984.84
2022-09-17T03:07:30.274Z,984.83
2022-09-17T03:08:30.281Z,984.83
2022-09-17T03:09:30.249Z,984.88
2022-09-17T03:10:30.233Z,984.91
2022-09-17T03:11:30.233Z,984.90
2022-09-17T03:12:30.218Z,984.86
2022-09-17T03:13:30.224Z,984.89
2022-09-17T03:14:30.193Z,984.90
2022-09-17T03:15:30.182Z,984.88
2022-09-17T03:16:30.256Z,984.96
2022-09-17T03:17:30.171Z,984.87
2022-09-17T03:18:30.178Z,984.95
2022-09-17T03:19:30.264Z,984.94
2022-09-17T03:20:30.129Z,984.95
2022-09-17T03:21:30.120Z,984.95
2022-09-17T03:22:30.114Z,984.89
2022-09-17T03:23:30.121Z,984.93
2022-09-17T03:24:30.105Z,984.93
2022-09-17T03:25:30.078Z,984.87
2022-09-17T03:26:30.069Z,984.88
2022-09-17T03:27:30.061Z,984.93
2022-09-17T03:28:30.075Z,984.91
2022-09-17T03:29:30.038Z,984.90
2022-09-17T03:30:30.025Z,984.97
2022-09-17T03:31:30.077Z,984.91
2022-09-17T03:32:30.007Z,984.92
2022-09-17T03:33:30.015Z,984.88
2022-09-17T03:34:29.995Z,984.94
2022-09-17T03:35:30.102Z,984.90
2022-09-17T03:36:29.987Z,984.88
2022-09-17T03:37:33.080Z,984.88
2022-09-17T03:38:29.958Z,984.82
2022-09-17T03:39:29.934Z,984.85
2022-09-17T03:40:30.078Z,984.83
2022-09-17T03:41:29.915Z,984.86
2022-09-17T03:42:29.904Z,984.84
2022-09-17T03:43:29.907Z,984.93
2022-09-17T03:44:29.887Z,984.91
2022-09-17T03:45:29.873Z,984.89
2022-09-17T03:46:29.918Z,984.91
2022-09-17T03:47:29.850Z,984.90
2022-09-17T03:48:29.855Z,984.99
2022-09-17T03:49:29.831Z,985.01
2022-09-17T03:50:29.819Z,985.00
2022-09-17T03:51:29.924Z,985.04
2022-09-17T03:52:29.797Z,985.01
2022-09-17T03:53:29.808Z,985.01
2022-09-17T03:54:29.778Z,985.03
2022-09-17T03:55:29.772Z,985.01
2022-09-17T03:56:29.764Z,985.01
2022-09-17T03:57:29.754Z,984.99
2022-09-17T03:58:29.734Z,985.03
2022-09-17T03:59:29.741Z,985.02
2022-09-17T04:00:29.715Z,985.01
2022-09-17T04:01:29.791Z,984.99
2022-09-17T04:02:29.803Z,985.06
2022-09-17T04:03:29.699Z,985.08
2022-09-17T04:04:29.675Z,985.05
2022-09-17T04:05:29.667Z,985.07
2022-09-17T04:06:29.653Z,985.05
2022-09-17T04:07:29.762Z,985.08
2022-09-17T04:08:29.650Z,985.08
2022-09-17T04:09:30.038Z,985.07
2022-09-17T04:10:29.611Z,985.09
2022-09-17T04:11:29.601Z,985.10
2022-09-17T04:12:29.593Z,985.13
2022-09-17T04:13:29.599Z,985.11
2022-09-17T04:14:29.570Z,985.12
2022-09-17T04:15:29.566Z,985.16
2022-09-17T04:16:29.667Z,985.10
2022-09-17T04:17:29.543Z,985.07
2022-09-17T04:18:29.545Z,985.10
2022-09-17T04:19:29.521Z,985.12
2022-09-17T04:20:29.508Z,985.14
2022-09-17T04:21:29.498Z,985.11
2022-09-17T04:22:29.489Z,985.13
2022-09-17T04:23:29.626Z,985.14
2022-09-17T04:24:29.468Z,985.15
2022-09-17T04:25:29.458Z,985.16
2022-09-17T04:26:29.451Z,985.16
2022-09-17T04:27:29.435Z,985.15
2022-09-17T04:28:29.441Z,985.21
2022-09-17T04:29:29.413Z,985.14
2022-09-17T04:30:29.414Z,985.17
2022-09-17T04:31:29.485Z,985.13
2022-09-17T04:32:29.393Z,985.14
2022-09-17T04:33:29.387Z,985.16
2022-09-17T04:34:29.363Z,985.19
2022-09-17T04:35:29.357Z,985.20
2022-09-17T04:36:29.347Z,985.21
2022-09-17T04:37:29.360Z,985.26
2022-09-17T04:38:29.339Z,985.28
2022-09-17T04:39:29.430Z,985.25
2022-09-17T04:40:29.387Z,985.25
2022-09-17T04:41:29.291Z,985.26
2022-09-17T04:42:29.281Z,985.25
2022-09-17T04:43:29.289Z,985.25
2022-09-17T04:44:29.264Z,985.26
2022-09-17T04:45:29.249Z,985.22
2022-09-17T04:46:29.300Z,985.26
2022-09-17T04:47:29.255Z,985.32
2022-09-17T04:48:29.220Z,985.29
2022-09-17T04:49:29.222Z,985.30
2022-09-17T04:50:29.200Z,985.31
2022-09-17T04:51:29.186Z,985.32
2022-09-17T04:52:31.082Z,985.28
2022-09-17T04:53:29.185Z,985.31
2022-09-17T04:54:29.159Z,985.34
2022-09-17T04:55:29.267Z,985.35
2022-09-17T04:56:29.137Z,985.29
2022-09-17T04:57:29.127Z,985.30
2022-09-17T04:58:29.135Z,985.33
2022-09-17T04:59:29.105Z,985.28
2022-09-17T05:00:29.093Z,985.31
2022-09-17T05:01:29.153Z,985.32
2022-09-17T05:02:29.206Z,985.33
2022-09-17T05:03:29.081Z,985.30
2022-09-17T05:04:29.058Z,985.31
2022-09-17T05:05:29.043Z,985.34
2022-09-17T05:06:29.032Z,985.34
2022-09-17T05:07:29.023Z,985.31
2022-09-17T05:08:29.033Z,985.38
2022-09-17T05:09:29.001Z,985.35
2022-09-17T05:10:28.994Z,985.36
2022-09-17T05:11:29.100Z,985.40
2022-09-17T05:12:33.683Z,985.39
2022-09-17T05:13:29.982Z,985.40
2022-09-17T05:14:28.951Z,985.35
2022-09-17T05:15:28.940Z,985.42
2022-09-17T05:16:28.996Z,985.40
2022-09-17T05:17:28.930Z,985.42
2022-09-17T05:18:28.910Z,985.44
2022-09-17T05:19:28.938Z,985.48
2022-09-17T05:20:28.925Z,985.47
2022-09-17T05:21:28.893Z,985.48
2022-09-17T05:22:28.889Z,985.50
2022-09-17T05:23:28.874Z,985.50
2022-09-17T05:24:28.852Z,985.52
2022-09-17T05:25:28.852Z,985.52
2022-09-17T05:26:28.845Z,985.52
2022-09-17T05:27:28.950Z,985.55
2022-09-17T05:28:28.830Z,985.50
2022-09-17T05:29:28.798Z,985.52
2022-09-17T05:30:28.790Z,985.52
2022-09-17T05:31:28.931Z,985.55
2022-09-17T05:32:28.767Z,985.55
2022-09-17T05:33:28.769Z,985.58
2022-09-17T05:34:28.748Z,985.62
2022-09-17T05:35:28.736Z,985.62
2022-09-17T05:36:28.725Z,985.59
2022-09-17T05:37:28.717Z,985.66
2022-09-17T05:38:28.722Z,985.68
2022-09-17T05:39:28.695Z,985.72
2022-09-17T05:40:28.780Z,985.70
2022-09-17T05:41:28.678Z,985.68
2022-09-17T05:42:28.668Z,985.69
2022-09-17T05:43:28.790Z,985.68
2022-09-17T05:44:29.357Z,985.67
2022-09-17T05:45:28.633Z,985.71
2022-09-17T05:46:28.669Z,985.72
2022-09-17T05:47:28.614Z,985.80
2022-09-17T05:48:28.619Z,985.77
2022-09-17T05:49:28.617Z,985.80
2022-09-17T05:50:28.583Z,985.81
2022-09-17T05:51:28.575Z,985.81
2022-09-17T05:52:28.561Z,985.74
2022-09-17T05:53:28.562Z,985.81
2022-09-17T05:54:28.541Z,985.80
2022-09-17T05:55:28.531Z,985.79
2022-09-17T05:56:28.522Z,985.82
2022-09-17T05:57:28.536Z,985.80
2022-09-17T05:58:28.518Z,985.81
2022-09-17T05:59:28.604Z,985.80
2022-09-17T06:00:28.537Z,985.80
2022-09-17T06:01:28.562Z,985.83
2022-09-17T06:02:28.514Z,985.79
2022-09-17T06:03:28.471Z,985.83
2022-09-17T06:04:31.594Z,985.83
2022-09-17T06:05:29.422Z,985.83
2022-09-17T06:06:28.415Z,985.89
2022-09-17T06:07:28.408Z,985.81
2022-09-17T06:08:28.434Z,985.83
2022-09-17T06:09:28.381Z,985.89
2022-09-17T06:10:28.373Z,985.84
2022-09-17T06:11:28.362Z,985.82
2022-09-17T06:12:28.354Z,985.84
2022-09-17T06:13:28.354Z,985.89
2022-09-17T06:14:28.333Z,985.90
2022-09-17T06:15:28.435Z,985.92
2022-09-17T06:16:28.414Z,985.94
2022-09-17T06:17:28.301Z,985.98
2022-09-17T06:18:28.302Z,986.00
2022-09-17T06:19:28.278Z,986.01
2022-09-17T06:20:28.287Z,986.01
2022-09-17T06:21:28.258Z,986.07
2022-09-17T06:22:28.245Z,986.02
2022-09-17T06:23:28.250Z,986.01
2022-09-17T06:24:28.229Z,986.05
2022-09-17T06:25:28.221Z,986.05
2022-09-17T06:26:28.206Z,986.05
2022-09-17T06:27:28.190Z,986.05
2022-09-17T06:28:28.193Z,986.06
2022-09-17T06:29:28.195Z,986.13
2022-09-17T06:30:28.172Z,986.11
2022-09-17T06:31:28.329Z,986.18
2022-09-17T06:32:28.168Z,986.12
2022-09-17T06:33:28.132Z,986.14
2022-09-17T06:34:28.143Z,986.13
2022-09-17T06:35:28.111Z,986.15
2022-09-17T06:36:28.109Z,986.21
2022-09-17T06:37:28.088Z,986.19
2022-09-17T06:38:28.096Z,986.19
2022-09-17T06:39:28.069Z,986.16
2022-09-17T06:40:28.176Z,986.17
2022-09-17T06:41:28.066Z,986.15
2022-09-17T06:42:28.039Z,986.11
2022-09-17T06:43:28.056Z,986.11
2022-09-17T06:44:28.023Z,986.18
2022-09-17T06:45:28.008Z,986.15
2022-09-17T06:46:28.022Z,986.13
2022-09-17T06:47:28.110Z,986.14
2022-09-17T06:48:28.024Z,986.19
2022-09-17T06:49:27.966Z,986.19
2022-09-17T06:50:27.956Z,986.14
2022-09-17T06:51:27.954Z,986.15
2022-09-17T06:52:27.939Z,986.17
2022-09-17T06:53:27.932Z,986.17
2022-09-17T06:54:27.930Z,986.16
2022-09-17T06:55:27.901Z,986.17
2022-09-17T06:56:27.901Z,986.16
2022-09-17T06:57:27.879Z,986.15
2022-09-17T06:58:27.878Z,986.12
2022-09-17T06:59:27.876Z,986.19
2022-09-17T07:00:27.850Z,986.13
2022-09-17T07:01:27.924Z,986.13
2022-09-17T07:02:27.846Z,986.15
2022-09-17T07:03:27.950Z,986.20
2022-09-17T07:04:27.821Z,986.15
2022-09-17T07:05:27.801Z,986.16
2022-09-17T07:06:27.788Z,986.19
2022-09-17T07:07:27.781Z,986.12
2022-09-17T07:08:27.765Z,986.12
2022-09-17T07:09:27.774Z,986.10
2022-09-17T07:10:27.752Z,986.11
2022-09-17T07:11:27.754Z,986.18
2022-09-17T07:12:27.728Z,986.12
2022-09-17T07:13:27.712Z,986.12
2022-09-17T07:14:27.722Z,986.15
2022-09-17T07:15:27.693Z,986.16
2022-09-17T07:16:27.735Z,986.20
2022-09-17T07:17:27.670Z,986.16
2022-09-17T07:18:27.667Z,986.19
2022-09-17T07:19:27.784Z,986.15
2022-09-17T07:20:27.640Z,986.26
2022-09-17T07:21:27.626Z,986.21
2022-09-17T07:22:27.621Z,986.22
2022-09-17T07:23:27.608Z,986.22
2022-09-17T07:24:32.563Z,986.17
2022-09-17T07:25:28.598Z,986.16
2022-09-17T07:26:27.581Z,986.18
2022-09-17T07:27:27.566Z,986.25
2022-09-17T07:28:27.557Z,986.20
2022-09-17T07:29:27.563Z,986.16
2022-09-17T07:30:27.618Z,986.20
2022-09-17T07:31:27.575Z,986.22
2022-09-17T07:32:27.517Z,986.25
2022-09-17T07:33:27.505Z,986.22
2022-09-17T07:34:27.521Z,986.21
2022-09-17T07:35:27.604Z,986.24
2022-09-17T07:36:27.474Z,986.22
2022-09-17T07:37:27.464Z,986.27
2022-09-17T07:38:27.452Z,986.22
2022-09-17T07:39:27.457Z,986.22
2022-09-17T07:40:27.490Z,986.16
2022-09-17T07:41:27.423Z,986.20
2022-09-17T07:42:27.412Z,986.18
2022-09-17T07:43:27.399Z,986.25
2022-09-17T07:44:28.561Z,986.30
2022-09-17T07:45:27.377Z,986.28
2022-09-17T07:46:27.427Z,986.27
2022-09-17T07:47:27.357Z,986.24
2022-09-17T07:48:27.352Z,986.26
2022-09-17T07:49:27.355Z,986.26
2022-09-17T07:50:27.331Z,986.25
2022-09-17T07:51:27.436Z,986.18
2022-09-17T07:52:27.307Z,986.14
2022-09-17T07:53:27.298Z,986.15
2022-09-17T07:54:27.304Z,986.18
2022-09-17T07:55:27.274Z,986.20
2022-09-17T07:56:27.264Z,986.18
2022-09-17T07:57:27.257Z,986.17
2022-09-17T07:58:27.250Z,986.19
2022-09-17T07:59:27.250Z,986.11
2022-09-17T08:00:27.230Z,986.09
2022-09-17T08:01:27.308Z,986.05
2022-09-17T08:02:27.338Z,986.11
2022-09-17T08:03:27.193Z,985.96
2022-09-17T08:04:27.226Z,986.03
2022-09-17T08:05:27.206Z,986.05
2022-09-17T08:06:27.166Z,986.02
2022-09-17T08:07:27.273Z,986.05
2022-09-17T08:08:27.143Z,986.04
2022-09-17T08:09:27.148Z,986.06
2022-09-17T08:10:27.121Z,986.12
2022-09-17T08:11:51.944Z,986.21
2022-09-17T08:12:28.105Z,986.11
2022-09-17T08:13:27.088Z,986.12
2022-09-17T08:14:29.694Z,986.15
2022-09-17T08:15:27.067Z,986.07
2022-09-17T08:16:27.093Z,986.01
2022-09-17T08:17:27.046Z,986.09
2022-09-17T08:18:27.042Z,986.07
2022-09-17T08:19:27.028Z,986.01
2022-09-17T08:20:27.051Z,986.03
2022-09-17T08:21:27.077Z,986.03
2022-09-17T08:22:26.998Z,986.05
2022-09-17T08:23:27.108Z,986.19
2022-09-17T08:24:26.995Z,986.22
2022-09-17T08:25:26.979Z,986.36
2022-09-17T08:26:26.959Z,986.29
2022-09-17T08:27:26.949Z,986.43
2022-09-17T08:28:26.937Z,986.50
2022-09-17T08:29:26.928Z,986.40
2022-09-17T08:30:26.927Z,986.46
2022-09-17T08:31:27.014Z,986.49
2022-09-17T08:32:26.893Z,986.59
2022-09-17T08:33:26.884Z,986.55
2022-09-17T08:34:26.871Z,986.53
2022-09-17T08:35:26.874Z,986.50
2022-09-17T08:36:26.851Z,986.52
2022-09-17T08:37:26.844Z,986.48
2022-09-17T08:38:26.835Z,986.48
2022-09-17T08:39:26.945Z,986.49
2022-09-17T08:40:26.893Z,986.47
2022-09-17T08:41:26.807Z,986.43
2022-09-17T08:42:26.789Z,986.46
2022-09-17T08:43:26.781Z,986.50
2022-09-17T08:44:26.775Z,986.48
2022-09-17T08:45:26.778Z,986.53
2022-09-17T08:46:26.816Z,986.48
2022-09-17T08:47:26.741Z,986.48
2022-09-17T08:48:26.727Z,986.47
2022-09-17T08:49:26.718Z,986.54
2022-09-17T08:50:26.719Z,986.57
2022-09-17T08:51:26.799Z,986.58
2022-09-17T08:52:26.684Z,986.58
2022-09-17T08:53:26.675Z,986.54
2022-09-17T08:54:26.663Z,986.60
2022-09-17T08:55:26.783Z,986.51
2022-09-17T08:56:26.831Z,986.50
2022-09-17T08:57:26.640Z,986.52
2022-09-17T08:58:26.620Z,986.51
2022-09-17T08:59:26.613Z,986.50
2022-09-17T09:00:26.615Z,986.49
2022-09-17T09:01:26.656Z,986.55
2022-09-17T09:02:26.689Z,986.53
2022-09-17T09:03:26.582Z,986.51
2022-09-17T09:04:26.558Z,986.50
2022-09-17T09:05:26.566Z,986.49
2022-09-17T09:06:26.542Z,986.55
2022-09-17T09:07:26.530Z,986.53
2022-09-17T09:08:26.517Z,986.51
2022-09-17T09:09:26.510Z,986.48
2022-09-17T09:10:26.511Z,986.50
2022-09-17T09:11:26.607Z,986.52
2022-09-17T09:12:26.475Z,986.55
2022-09-17T09:13:26.472Z,986.49
2022-09-17T09:14:26.477Z,986.54
2022-09-17T09:15:26.466Z,986.48
2022-09-17T09:16:26.565Z,986.52
2022-09-17T09:17:26.426Z,986.52
2022-09-17T09:18:26.412Z,986.47
2022-09-17T09:19:26.416Z,986.47
2022-09-17T09:20:26.400Z,986.47
2022-09-17T09:21:26.398Z,986.52
2022-09-17T09:22:26.373Z,986.51
2022-09-17T09:23:26.397Z,986.51
2022-09-17T09:24:26.382Z,986.47
2022-09-17T09:25:26.343Z,986.49
2022-09-17T09:26:26.344Z,986.45
2022-09-17T09:27:26.444Z,986.48
2022-09-17T09:28:26.311Z,986.44
2022-09-17T09:29:26.301Z,986.43
2022-09-17T09:30:26.291Z,986.38
2022-09-17T09:31:26.384Z,986.41
2022-09-17T09:32:26.270Z,986.44
2022-09-17T09:33:26.266Z,986.39
2022-09-17T09:34:26.247Z,986.44
2022-09-17T09:35:26.239Z,986.42
2022-09-17T09:36:26.249Z,986.41
2022-09-17T09:37:26.219Z,986.41
2022-09-17T09:38:26.240Z,986.39
2022-09-17T09:39:26.202Z,986.45
2022-09-17T09:40:26.241Z,986.45
2022-09-17T09:41:26.194Z,986.49
2022-09-17T09:42:26.184Z,986.45
2022-09-17T09:43:36.616Z,986.45
2022-09-17T09:44:27.225Z,986.38
2022-09-17T09:45:26.134Z,986.40
2022-09-17T09:46:26.162Z,986.38
2022-09-17T09:47:26.114Z,986.45
2022-09-17T09:48:26.104Z,986.29
2022-09-17T09:49:26.096Z,986.31
2022-09-17T09:50:34.551Z,986.30
2022-09-17T09:51:27.094Z,986.24
2022-09-17T09:52:26.061Z,986.22
2022-09-17T09:53:26.054Z,986.22
2022-09-17T09:54:26.043Z,986.23
2022-09-17T09:55:27.003Z,986.27
2022-09-17T09:56:26.035Z,986.21
2022-09-17T09:57:26.010Z,986.16
2022-09-17T09:58:26.001Z,986.20
2022-09-17T09:59:26.116Z,986.24
2022-09-17T10:00:26.045Z,986.28
2022-09-17T10:01:26.027Z,986.28
2022-09-17T10:02:26.187Z,986.21
2022-09-17T10:03:25.950Z,986.27
2022-09-17T10:04:25.941Z,986.24
2022-09-17T10:05:25.949Z,986.24
2022-09-17T10:06:25.929Z,986.23
2022-09-17T10:07:25.910Z,986.26
2022-09-17T10:08:25.905Z,986.20
2022-09-17T10:09:25.887Z,986.24
2022-09-17T10:10:25.879Z,986.26
2022-09-17T10:11:25.882Z,986.32
2022-09-17T10:12:25.860Z,986.30
2022-09-17T10:13:25.847Z,986.31
2022-09-17T10:14:25.836Z,986.25
2022-09-17T10:15:25.946Z,986.22
2022-09-17T10:16:25.838Z,986.28
2022-09-17T10:17:25.807Z,986.16
2022-09-17T10:18:25.799Z,986.21
2022-09-17T10:19:25.919Z,986.13
2022-09-17T10:20:25.781Z,986.16
2022-09-17T10:21:25.781Z,986.24
2022-09-17T10:22:25.754Z,986.20
2022-09-17T10:23:25.746Z,986.25
2022-09-17T10:24:25.731Z,986.19
2022-09-17T10:25:25.724Z,986.14
2022-09-17T10:26:25.733Z,986.28
2022-09-17T10:27:25.710Z,986.18
2022-09-17T10:28:25.720Z,986.34
2022-09-17T10:29:25.837Z,986.19
2022-09-17T10:30:25.668Z,986.19
2022-09-17T10:31:25.835Z,986.21
2022-09-17T10:32:25.662Z,986.18
2022-09-17T10:33:25.642Z,986.13
2022-09-17T10:34:25.630Z,986.14
2022-09-17T10:35:25.617Z,986.17
2022-09-17T10:36:25.607Z,986.23
2022-09-17T10:37:25.615Z,986.18
2022-09-17T10:38:25.590Z,986.24
2022-09-17T10:39:25.625Z,986.20
2022-09-17T10:40:25.639Z,986.27
2022-09-17T10:41:25.560Z,986.26
2022-09-17T10:42:25.569Z,986.19
2022-09-17T10:43:25.535Z,986.24
2022-09-17T10:44:25.531Z,986.26
2022-09-17T10:45:25.518Z,986.26
2022-09-17T10:46:27.803Z,986.29
2022-09-17T10:47:25.628Z,986.34
2022-09-17T10:48:25.482Z,986.32
2022-09-17T10:49:25.575Z,986.26
2022-09-17T10:50:25.462Z,986.30
2022-09-17T10:51:25.453Z,986.35
2022-09-17T10:52:25.473Z,986.31
2022-09-17T10:53:25.499Z,986.36
2022-09-17T10:54:25.424Z,986.29
2022-09-17T10:55:25.410Z,986.41
2022-09-17T10:56:25.401Z,986.27
2022-09-17T10:57:25.419Z,986.27
2022-09-17T10:58:25.379Z,986.22
2022-09-17T10:59:25.374Z,986.21
2022-09-17T11:00:25.358Z,986.21
2022-09-17T11:01:25.440Z,986.22
2022-09-17T11:02:25.484Z,986.23
2022-09-17T11:03:25.452Z,986.28
2022-09-17T11:04:25.319Z,986.19
2022-09-17T11:05:25.308Z,986.14
2022-09-17T11:06:25.302Z,986.37
2022-09-17T11:07:25.307Z,986.23
2022-09-17T11:08:25.280Z,986.26
2022-09-17T11:09:25.266Z,986.19
2022-09-17T11:10:25.257Z,986.24
2022-09-17T11:11:25.245Z,986.17
2022-09-17T11:12:25.236Z,986.15
2022-09-17T11:13:25.248Z,986.18
2022-09-17T11:14:25.214Z,986.16
2022-09-17T11:15:25.208Z,986.16
2022-09-17T11:16:25.272Z,986.17
2022-09-17T11:17:25.184Z,986.14
2022-09-17T11:18:25.184Z,986.10
2022-09-17T11:19:25.278Z,986.20
2022-09-17T11:20:25.153Z,986.51
2022-09-17T11:21:25.140Z,986.48
2022-09-17T11:22:25.136Z,986.46
2022-09-17T11:23:25.136Z,986.33
2022-09-17T11:24:25.114Z,986.21
2022-09-17T11:25:25.958Z,986.26
2022-09-17T11:26:25.092Z,986.25
2022-09-17T11:27:25.090Z,986.13
2022-09-17T11:28:25.079Z,986.15
2022-09-17T11:29:25.059Z,986.10
2022-09-17T11:30:25.045Z,986.14
2022-09-17T11:31:25.143Z,986.10
2022-09-17T11:32:25.042Z,986.11
2022-09-17T11:33:25.016Z,986.12
2022-09-17T11:34:25.006Z,986.05
2022-09-17T11:35:25.117Z,986.05
2022-09-17T11:36:24.982Z,986.04
2022-09-17T11:37:24.975Z,985.96
2022-09-17T11:38:24.981Z,985.90
2022-09-17T11:39:24.956Z,985.96
2022-09-17T11:40:25.031Z,985.99
2022-09-17T11:41:24.934Z,985.98
2022-09-17T11:42:24.921Z,985.92
2022-09-17T11:43:24.930Z,985.93
2022-09-17T11:44:24.901Z,985.89
2022-09-17T11:45:24.892Z,985.83
2022-09-17T11:46:24.954Z,985.83
2022-09-17T11:47:24.872Z,985.77
2022-09-17T11:48:24.873Z,985.80
2022-09-17T11:49:24.863Z,985.73
2022-09-17T11:50:24.854Z,985.79
2022-09-17T11:51:24.950Z,985.70
2022-09-17T11:52:24.819Z,985.81
2022-09-17T11:53:24.823Z,985.78
2022-09-17T11:54:24.796Z,985.86
2022-09-17T11:55:24.783Z,985.95
2022-09-17T11:56:24.777Z,986.00
2022-09-17T11:57:24.765Z,985.98
2022-09-17T11:58:24.779Z,986.18
2022-09-17T11:59:24.746Z,986.04
2022-09-17T12:00:24.735Z,986.12
2022-09-17T12:01:24.726Z,986.22
2022-09-17T12:02:24.780Z,986.16
2022-09-17T12:03:24.798Z,986.31
2022-09-17T12:04:24.692Z,986.23
2022-09-17T12:05:24.711Z,986.31
2022-09-17T12:06:24.671Z,986.20
2022-09-17T12:07:24.781Z,986.14
2022-09-17T12:08:24.678Z,986.18
2022-09-17T12:09:24.647Z,986.13
2022-09-17T12:10:24.631Z,986.15
2022-09-17T12:11:24.619Z,986.13
2022-09-17T12:12:47.966Z,986.14
2022-09-17T12:13:25.717Z,986.05
2022-09-17T12:14:24.604Z,986.09
2022-09-17T12:15:24.582Z,986.00
2022-09-17T12:16:24.649Z,986.03
2022-09-17T12:17:24.557Z,986.02
2022-09-17T12:18:33.248Z,985.89
2022-09-17T12:19:25.539Z,985.89
2022-09-17T12:20:24.535Z,985.88
2022-09-17T12:21:24.522Z,985.87
2022-09-17T12:22:24.505Z,985.86
2022-09-17T12:23:24.626Z,985.84
2022-09-17T12:24:24.483Z,985.85
2022-09-17T12:25:24.475Z,985.82
2022-09-17T12:26:24.465Z,985.81
2022-09-17T12:27:24.456Z,985.85
2022-09-17T12:28:24.462Z,985.89